Terminal Aerodrome Forecast
Issued by NWS

Home | Current Version | Previous Version | Text Only | Print | Product List | Glossary On
Versions: 1 2 3 4 5 6 7 8 9 10 11 12 13 14 15 16 17 18 19 20
185
FTUS43 KAPX 240520
TAFAPN
TAF
KAPN 240520Z 2406/2506 00000KT P6SM BKN200
     FM240800 19005KT P6SM VCSH BKN090 OVC200
     FM241400 20010G17KT P6SM VCSH BKN070
     FM241800 20011G17KT P6SM BKN050
     FM242200 21008KT P6SM BKN050
     FM250300 25008KT P6SM SHRA BKN035=

USA.gov is the U.S. government's official web portal to all federal, state and local government web resources and services.